Robstown, Nueces County Airport (KRBO)

NameNueces County Airport
CityRobstown
CountryUnited States
ICAOKRBO
IATA
Altitude24 m
CoordinatesGoogle Map
Live Air TrafficLiveATC.net
METARKRBO 122055Z AUTO 16013KT 10SM CLR 22/17 A2991 RMK AO2 T02170165
2018-12-12 20:55:00 Wind: South-Southeast (160°) 6.69 m/s - Visibility: 16093.4 m - Temperature: 22 °C - Dew point: 17 °C - Humidity: 73.4% - Pressure: 1012.87 hPa
Statistics

The table below shows the detailed information of all flights to/from Robstown, Nueces County Airport (KRBO).